Time;durP1;ratioP1;P1;durP2;ratioP2;P2;SDS_P1;SDS_P2;PMS_P1;PMS_P2;Temp;Humidity;BMP_temperature;BMP_pressure;BME280_temperature;BME280_humidity;BME280_pressure;Samples;Min_cycle;Max_cycle;Signal;HPM_P1;HPM_P2
2022/08/24 00:01:31;;;;;;;4.70;3.93;;;19.20;99.90;;;;;;6069834;23;20168;-65
2022/08/24 00:04:01;;;;;;;4.73;4.43;;;19.20;99.90;;;;;;6069987;23;20251;-65
2022/08/24 00:06:31;;;;;;;5.63;5.13;;;19.20;99.90;;;;;;6070137;23;20601;-65
2022/08/24 00:09:00;;;;;;;7.73;5.10;;;19.20;99.90;;;;;;6070005;23;20169;-65
2022/08/24 00:11:28;;;;;;;6.13;4.93;;;19.20;99.90;;;;;;6069672;23;20184;-65
2022/08/24 00:13:57;;;;;;;5.70;5.20;;;19.30;99.90;;;;;;6069932;23;20577;-65
2022/08/24 00:16:25;;;;;;;5.73;5.17;;;19.30;99.90;;;;;;6070199;23;20192;-65
2022/08/24 00:18:54;;;;;;;6.37;5.77;;;19.40;99.90;;;;;;6070276;23;20629;-65
2022/08/24 00:21:24;;;;;;;6.53;4.97;;;19.40;99.90;;;;;;6069867;23;20172;-65
2022/08/24 00:23:53;;;;;;;6.17;5.30;;;19.30;99.90;;;;;;6044624;23;20196;-65
2022/08/24 00:26:21;;;;;;;5.63;4.63;;;19.30;99.90;;;;;;6069672;23;20521;-65
2022/08/24 00:28:56;;;;;;;5.13;4.67;;;19.30;99.90;;;;;;6070016;23;20646;-65
2022/08/24 00:31:25;;;;;;;5.90;4.50;;;19.30;99.90;;;;;;6069799;23;20635;-65
2022/08/24 00:33:55;;;;;;;4.83;4.30;;;19.30;99.90;;;;;;6069854;23;20168;-65
2022/08/24 00:36:25;;;;;;;4.20;3.90;;;19.20;99.90;;;;;;6069656;23;20176;-65
2022/08/24 00:38:53;;;;;;;5.97;4.20;;;19.10;99.90;;;;;;6069944;23;20168;-65
2022/08/24 00:41:24;;;;;;;5.23;4.03;;;19.10;99.90;;;;;;6069566;23;20172;-65
2022/08/24 00:43:54;;;;;;;5.80;4.60;;;19.00;99.90;;;;;;6069662;23;20613;-65
2022/08/24 00:46:26;;;;;;;4.93;4.47;;;19.00;99.90;;;;;;6069655;23;20459;-65
2022/08/24 00:49:01;;;;;;;4.63;4.10;;;19.00;99.90;;;;;;6069726;23;20168;-65
2022/08/24 00:51:43;;;;;;;4.77;4.37;;;19.00;99.90;;;;;;6069657;23;20175;-65
2022/08/24 00:54:16;;;;;;;4.27;3.87;;;18.90;99.90;;;;;;6069823;23;20199;-65
2022/08/24 00:56:48;;;;;;;4.63;4.27;;;18.90;99.90;;;;;;6069964;23;20292;-65
2022/08/24 00:59:22;;;;;;;6.00;5.47;;;18.90;99.90;;;;;;6069366;23;20534;-65
2022/08/24 01:02:34;;;;;;;7.83;4.87;;;18.80;99.90;;;;;;6020651;23;20179;-65
2022/08/24 01:05:32;;;;;;;5.73;5.23;;;18.80;99.90;;;;;;6069614;23;20171;-65
2022/08/24 01:11:49;;;;;;;4.70;4.27;;;18.70;99.90;;;;;;6069065;23;20152;-65
2022/08/24 01:14:21;;;;;;;5.47;4.40;;;18.60;99.90;;;;;;6043780;23;20321;-65
2022/08/24 01:19:38;;;;;;;5.03;4.23;;;18.60;99.90;;;;;;6043773;23;20235;-65
2022/08/24 01:22:21;;;;;;;4.53;4.23;;;18.60;99.90;;;;;;6069240;23;20247;-65
2022/08/24 01:24:51;;;;;;;5.33;4.80;;;18.50;99.90;;;;;;6069253;23;20270;-65
2022/08/24 01:27:20;;;;;;;4.43;4.00;;;18.50;99.90;;;;;;6069124;23;20170;-65
2022/08/24 01:29:57;;;;;;;6.47;4.17;;;18.50;99.90;;;;;;6069184;23;20185;-65
2022/08/24 01:32:27;;;;;;;4.90;4.13;;;18.50;99.90;;;;;;6069474;23;20250;-65
2022/08/24 01:34:56;;;;;;;5.20;4.70;;;18.50;99.90;;;;;;6044421;23;20172;-65
2022/08/24 01:37:25;;;;;;;6.03;4.63;;;18.50;99.90;;;;;;6043571;23;20188;-65
2022/08/24 01:39:57;;;;;;;6.43;5.00;;;18.40;99.90;;;;;;6068882;23;20497;-65
2022/08/24 01:42:28;;;;;;;8.27;4.90;;;18.50;99.90;;;;;;6068897;23;20459;-65
2022/08/24 01:44:57;;;;;;;9.13;4.80;;;18.40;99.90;;;;;;6069138;23;20167;-65
2022/08/24 01:47:25;;;;;;;5.63;4.80;;;18.40;99.90;;;;;;6068644;23;20160;-65
2022/08/24 01:49:53;;;;;;;8.17;5.00;;;18.40;99.90;;;;;;6068973;23;20196;-66
2022/08/24 01:52:25;;;;;;;6.73;5.10;;;18.40;99.90;;;;;;6068934;23;20251;-65
2022/08/24 01:55:15;;;;;;;5.73;5.17;;;18.40;99.90;;;;;;6069191;23;20647;-65
2022/08/24 01:57:49;;;;;;;5.03;4.63;;;18.40;99.90;;;;;;6043377;23;20263;-64
2022/08/24 02:00:18;;;;;;;5.10;4.60;;;18.30;99.90;;;;;;6068716;23;20793;-65
2022/08/24 02:02:51;;;;;;;5.07;4.73;;;18.30;99.90;;;;;;6069009;23;20239;-65
2022/08/24 02:05:20;;;;;;;5.73;4.93;;;18.30;99.90;;;;;;6068831;23;20172;-65
2022/08/24 02:08:26;;;;;;;8.20;5.63;;;18.30;99.90;;;;;;6069086;23;20224;-65
2022/08/24 02:10:56;;;;;;;5.40;5.00;;;18.30;99.90;;;;;;6068629;23;20521;-65
2022/08/24 02:13:27;;;;;;;5.47;5.07;;;18.30;99.90;;;;;;6068714;23;20156;-65
2022/08/24 02:15:56;;;;;;;5.40;4.80;;;18.30;99.90;;;;;;6043400;23;20165;-66
2022/08/24 02:18:25;;;;;;;6.87;5.00;;;18.30;99.90;;;;;;6069103;23;20259;-65
2022/08/24 02:20:53;;;;;;;5.10;4.70;;;18.30;99.90;;;;;;6068931;23;20562;-65
2022/08/24 02:23:22;;;;;;;4.73;4.37;;;18.30;99.90;;;;;;6043508;23;20617;-65
2022/08/24 02:25:51;;;;;;;4.90;4.40;;;18.30;99.90;;;;;;6068682;23;20196;-65
2022/08/24 02:28:21;;;;;;;5.27;4.70;;;18.20;99.90;;;;;;6068950;23;20172;-65
2022/08/24 02:30:50;;;;;;;7.23;4.70;;;18.20;99.90;;;;;;6068500;23;20202;-65
2022/08/24 02:33:18;;;;;;;5.17;4.70;;;18.20;99.90;;;;;;6068826;23;20685;-65
2022/08/24 02:35:47;;;;;;;8.17;4.63;;;18.20;99.90;;;;;;6068613;23;20251;-65
2022/08/24 02:38:15;;;;;;;5.87;5.27;;;18.10;99.90;;;;;;6067048;23;20216;-65
2022/08/24 02:40:44;;;;;;;4.90;4.40;;;18.10;99.90;;;;;;6068501;23;20192;-65
2022/08/24 02:43:12;;;;;;;6.20;4.97;;;18.10;99.90;;;;;;6042992;23;20664;-66
2022/08/24 02:45:45;;;;;;;9.40;5.07;;;18.10;99.90;;;;;;6043330;23;20264;-66
2022/08/24 02:48:18;;;;;;;5.80;5.23;;;18.10;99.90;;;;;;6043499;23;20167;-66
2022/08/24 02:50:50;;;;;;;5.43;4.97;;;18.20;99.90;;;;;;6068390;23;20527;-66
2022/08/24 02:53:20;;;;;;;6.33;4.70;;;18.20;99.90;;;;;;6042665;23;20657;-66
2022/08/24 02:55:49;;;;;;;8.03;4.90;;;18.10;99.90;;;;;;6068611;23;20249;-65
2022/08/24 02:58:18;;;;;;;4.70;4.40;;;18.10;99.90;;;;;;6068167;23;20230;-66
2022/08/24 03:00:48;;;;;;;5.90;5.07;;;18.10;99.90;;;;;;6043094;23;20617;-65
2022/08/24 03:03:19;;;;;;;5.20;4.70;;;18.00;99.90;;;;;;6068400;23;20250;-65
2022/08/24 03:05:53;;;;;;;4.80;4.40;;;18.00;99.90;;;;;;6068705;23;20179;-65
2022/08/24 03:13:06;;;;;;;8.37;5.37;;;17.90;99.90;;;;;;6068486;23;20474;-66
2022/08/24 03:15:34;;;;;;;5.67;4.80;;;17.90;99.90;;;;;;6043272;23;20259;-65
2022/08/24 03:18:04;;;;;;;6.00;4.87;;;17.90;99.90;;;;;;6068451;23;20211;-65
2022/08/24 03:20:32;;;;;;;5.77;5.30;;;17.90;99.90;;;;;;6068403;23;20245;-65
2022/08/24 03:23:02;;;;;;;5.97;5.40;;;17.90;99.90;;;;;;6068231;23;20174;-66
2022/08/24 03:25:31;;;;;;;8.27;5.20;;;17.80;99.90;;;;;;6068074;23;20192;-65
2022/08/24 03:28:00;;;;;;;6.27;5.70;;;17.80;99.90;;;;;;6067731;23;20248;-66
2022/08/24 03:30:29;;;;;;;8.83;5.87;;;17.80;99.90;;;;;;6068050;23;20202;-66
2022/08/24 03:32:57;;;;;;;6.10;5.50;;;17.80;99.90;;;;;;6068026;23;20168;-65
2022/08/24 03:35:27;;;;;;;5.57;5.13;;;17.70;99.90;;;;;;6042797;23;20547;-65
2022/08/24 03:37:56;;;;;;;12.17;5.23;;;17.70;99.90;;;;;;6067817;23;20164;-65
2022/08/24 03:40:24;;;;;;;5.70;5.23;;;17.70;99.90;;;;;;6068056;23;20168;-65
2022/08/24 03:42:54;;;;;;;5.80;5.20;;;17.60;99.90;;;;;;6042929;23;20479;-65
2022/08/24 03:45:22;;;;;;;7.53;5.37;;;17.60;99.90;;;;;;6042633;23;20259;-65
2022/08/24 03:47:52;;;;;;;5.67;5.13;;;17.60;99.90;;;;;;6068231;23;20199;-66
2022/08/24 03:50:21;;;;;;;8.17;5.00;;;17.60;99.90;;;;;;6042769;23;20549;-65
2022/08/24 03:52:51;;;;;;;6.97;4.90;;;17.50;99.90;;;;;;6067992;23;20165;-65
2022/08/24 03:55:19;;;;;;;5.47;4.73;;;17.50;99.90;;;;;;6067794;23;20198;-65
2022/08/24 03:57:48;;;;;;;5.30;4.90;;;17.50;99.90;;;;;;6068050;23;20171;-65
2022/08/24 04:00:17;;;;;;;4.87;4.47;;;17.50;99.90;;;;;;6068284;23;20530;-66
2022/08/24 04:03:10;;;;;;;6.83;4.63;;;17.50;99.90;;;;;;6068152;23;20235;-65
2022/08/24 04:05:41;;;;;;;5.27;4.33;;;17.50;99.90;;;;;;6039425;23;20172;-62
2022/08/24 04:08:13;;;;;;;5.47;4.90;;;17.50;99.90;;;;;;6038648;23;20161;-62
2022/08/24 04:10:45;;;;;;;7.97;5.00;;;17.50;99.90;;;;;;6038651;23;20394;-62
2022/08/24 04:13:16;;;;;;;6.57;4.50;;;17.50;99.90;;;;;;6016113;23;20180;-62
2022/08/24 04:15:45;;;;;;;7.20;4.43;;;17.50;99.90;;;;;;6039197;23;20175;-62
2022/08/24 04:18:13;;;;;;;4.83;4.43;;;17.50;99.90;;;;;;6039847;23;20247;-62
2022/08/24 04:20:43;;;;;;;5.30;4.80;;;17.40;99.90;;;;;;6064296;23;20198;-62
2022/08/24 04:23:14;;;;;;;5.07;4.57;;;17.40;99.90;;;;;;6039775;23;20207;-62
2022/08/24 04:25:44;;;;;;;5.17;4.70;;;17.40;99.90;;;;;;6066039;23;20653;-62
2022/08/24 04:28:17;;;;;;;5.63;5.07;;;17.40;99.90;;;;;;6066751;23;20203;-61
2022/08/24 04:30:49;;;;;;;6.23;5.63;;;17.40;99.90;;;;;;6066269;23;20259;-62
2022/08/24 04:33:19;;;;;;;8.30;5.77;;;17.30;99.90;;;;;;6066796;23;20262;-62
2022/08/24 04:35:49;;;;;;;8.37;5.43;;;17.30;99.90;;;;;;6040353;23;20217;-62
2022/08/24 04:38:19;;;;;;;8.73;5.93;;;17.30;99.90;;;;;;6067180;23;20170;-62
2022/08/24 04:40:48;;;;;;;9.57;6.70;;;17.30;99.90;;;;;;6066152;23;20182;-62
2022/08/24 04:43:17;;;;;;;10.70;7.83;;;17.30;99.90;;;;;;6065745;23;20784;-62
2022/08/24 04:45:49;;;;;;;7.80;7.00;;;17.30;99.90;;;;;;6063995;23;20167;-62
2022/08/24 04:48:17;;;;;;;9.17;6.23;;;17.30;99.90;;;;;;6066758;23;20251;-62
2022/08/24 04:50:46;;;;;;;6.13;5.50;;;17.30;99.90;;;;;;6064979;23;20175;-62
2022/08/24 04:53:14;;;;;;;6.07;5.47;;;17.30;99.90;;;;;;6067294;23;20175;-62
2022/08/24 04:55:46;;;;;;;6.93;5.77;;;17.30;99.90;;;;;;6066397;23;20246;-62
2022/08/24 04:58:16;;;;;;;6.67;5.87;;;17.30;99.90;;;;;;6040900;23;20227;-62
2022/08/24 05:00:45;;;;;;;8.53;5.97;;;17.30;99.90;;;;;;6065909;23;20286;-62
2022/08/24 05:03:14;;;;;;;6.50;5.90;;;17.30;99.90;;;;;;6066932;23;20546;-62
2022/08/24 05:05:46;;;;;;;7.40;6.00;;;17.30;99.90;;;;;;6040392;23;20541;-62
2022/08/24 05:08:15;;;;;;;6.63;5.93;;;17.30;99.90;;;;;;6066488;23;20784;-62
2022/08/24 05:10:48;;;;;;;5.90;5.37;;;17.40;99.90;;;;;;6063830;23;20234;-62
2022/08/24 05:13:16;;;;;;;9.63;6.53;;;17.40;99.90;;;;;;6066187;23;20202;-61
2022/08/24 05:15:47;;;;;;;9.10;6.00;;;17.40;99.90;;;;;;6065705;23;20686;-62
2022/08/24 05:18:17;;;;;;;7.70;6.30;;;17.40;99.90;;;;;;6016938;23;20180;-62
2022/08/24 05:20:49;;;;;;;8.07;6.40;;;17.40;99.90;;;;;;6065489;23;20188;-62
2022/08/24 05:23:18;;;;;;;9.17;6.60;;;17.50;99.90;;;;;;6066225;23;20234;-62
2022/08/24 05:25:48;;;;;;;7.47;6.20;;;17.50;99.90;;;;;;6065825;23;20715;-62
2022/08/24 05:28:16;;;;;;;10.30;6.77;;;17.50;99.90;;;;;;6064737;23;20176;-62
2022/08/24 05:30:45;;;;;;;8.00;6.50;;;17.60;99.90;;;;;;6039745;23;20248;-62
2022/08/24 05:33:18;;;;;;;9.57;7.50;;;17.60;99.90;;;;;;6064718;23;20192;-62
2022/08/24 05:35:46;;;;;;;8.27;7.10;;;17.60;99.90;;;;;;6040381;23;20172;-62
2022/08/24 05:38:14;;;;;;;12.87;7.60;;;17.70;99.90;;;;;;6039127;23;20255;-61
2022/08/24 05:40:43;;;;;;;10.27;7.40;;;17.80;99.90;;;;;;6063666;23;20188;-62
2022/08/24 05:43:13;;;;;;;9.97;7.40;;;17.90;99.90;;;;;;6064575;23;20252;-62
2022/08/24 05:45:43;;;;;;;9.90;7.73;;;18.10;99.90;;;;;;6065218;23;20254;-62
2022/08/24 05:48:11;;;;;;;11.97;8.47;;;18.30;99.90;;;;;;6064933;23;20247;-62
2022/08/24 05:50:40;;;;;;;12.70;8.57;;;18.50;99.90;;;;;;6066078;23;20631;-62
2022/08/24 05:53:08;;;;;;;11.33;7.90;;;18.70;99.90;;;;;;6065024;23;20168;-62
2022/08/24 05:55:38;;;;;;;13.37;8.47;;;18.90;99.90;;;;;;6040199;23;20200;-62
2022/08/24 05:58:07;;;;;;;10.53;9.30;;;19.20;99.90;;;;;;6063865;23;20195;-62
2022/08/24 06:00:39;;;;;;;14.93;9.77;;;19.30;99.90;;;;;;6065254;23;20305;-62
2022/08/24 06:03:08;;;;;;;17.57;11.03;;;19.50;99.90;;;;;;6065057;23;20165;-62
2022/08/24 06:05:42;;;;;;;16.47;11.83;;;19.70;99.90;;;;;;6064822;23;20199;-62
2022/08/24 06:08:11;;;;;;;14.40;10.80;;;20.00;99.90;;;;;;6066270;23;20196;-62
2022/08/24 06:10:41;;;;;;;11.80;10.13;;;20.20;99.90;;;;;;6064969;23;20192;-62
2022/08/24 06:13:10;;;;;;;13.50;9.97;;;20.30;99.90;;;;;;6064958;23;20243;-62
2022/08/24 06:15:42;;;;;;;13.40;10.43;;;20.60;99.90;;;;;;6064248;23;20259;-62
2022/08/24 06:18:26;;;;;;;15.87;11.20;;;20.70;99.90;;;;;;6040063;23;20885;-62
2022/08/24 06:20:55;;;;;;;20.27;10.40;;;20.90;99.90;;;;;;6066175;23;20192;-62
2022/08/24 06:23:25;;;;;;;16.60;11.37;;;21.10;99.90;;;;;;6064437;23;20567;-62
2022/08/24 06:28:44;;;;;;;13.67;10.77;;;21.30;99.90;;;;;;6061759;23;20761;-62
2022/08/24 06:31:14;;;;;;;17.73;10.83;;;21.40;99.90;;;;;;6064686;23;20236;-62
2022/08/24 06:33:43;;;;;;;13.70;10.87;;;21.40;99.90;;;;;;6064088;23;20157;-62
2022/08/24 06:36:11;;;;;;;13.83;10.30;;;21.40;99.90;;;;;;6065136;23;20198;-62
2022/08/24 06:38:44;;;;;;;11.97;8.90;;;21.40;99.90;;;;;;6065623;23;20256;-62
2022/08/24 06:41:14;;;;;;;15.30;9.07;;;21.40;99.90;;;;;;6065858;23;20267;-62
2022/08/24 06:43:42;;;;;;;14.77;9.27;;;21.70;99.90;;;;;;6065843;23;20199;-62
2022/08/24 06:46:11;;;;;;;12.03;9.57;;;22.00;99.90;;;;;;6064885;23;20169;-62
2022/08/24 06:48:41;;;;;;;12.57;8.73;;;22.20;99.90;;;;;;6037347;23;20169;-62
2022/08/24 06:51:11;;;;;;;12.37;9.70;;;22.30;99.90;;;;;;6038956;23;20233;-62
2022/08/24 06:53:40;;;;;;;13.60;9.07;;;22.50;99.90;;;;;;6066339;23;20200;-61
2022/08/24 06:56:11;;;;;;;12.50;9.70;;;22.60;99.90;;;;;;6065592;23;20182;-62
2022/08/24 06:58:43;;;;;;;17.23;9.73;;;22.80;99.90;;;;;;6066570;23;20166;-62
2022/08/24 07:01:14;;;;;;;14.70;9.47;;;23.10;99.90;;;;;;6066281;23;20217;-61
2022/08/24 07:03:45;;;;;;;16.97;10.33;;;23.10;99.90;;;;;;6065597;23;20541;-61
2022/08/24 07:06:14;;;;;;;16.03;10.60;;;23.00;99.90;;;;;;6066008;23;20173;-62
2022/08/24 07:08:43;;;;;;;19.77;9.67;;;22.80;99.90;;;;;;6065088;23;20252;-62
2022/08/24 07:11:13;;;;;;;14.20;10.10;;;22.70;99.90;;;;;;6063798;23;20197;-66
2022/08/24 07:13:42;;;;;;;13.87;9.93;;;22.80;99.90;;;;;;6065982;23;20252;-61
2022/08/24 07:16:10;;;;;;;14.57;10.10;;;22.80;99.90;;;;;;6065462;23;20260;-62
2022/08/24 07:18:40;;;;;;;13.20;9.40;;;22.90;99.90;;;;;;6039891;23;20165;-62
2022/08/24 07:21:18;;;;;;;13.13;9.70;;;22.90;99.90;;;;;;6064599;23;20253;-62
2022/08/24 07:23:46;;;;;;;11.73;9.40;;;22.80;99.90;;;;;;6064656;23;20672;-62
2022/08/24 07:26:21;;;;;;;13.87;9.80;;;22.80;99.90;;;;;;6038591;23;20234;-62
2022/08/24 07:28:51;;;;;;;18.43;9.63;;;22.80;99.90;;;;;;6065220;23;20203;-62
2022/08/24 07:31:20;;;;;;;11.60;9.17;;;22.80;99.90;;;;;;6064995;23;20608;-62
2022/08/24 07:33:48;;;;;;;12.10;9.47;;;22.80;99.90;;;;;;6065464;23;20257;-63
2022/08/24 07:36:18;;;;;;;13.43;10.50;;;22.80;99.90;;;;;;6039459;23;20265;-62
2022/08/24 07:38:51;;;;;;;12.37;10.00;;;22.70;99.90;;;;;;6039297;23;20247;-62
2022/08/24 07:41:24;;;;;;;16.77;11.03;;;22.70;99.90;;;;;;6065063;23;20195;-62
2022/08/24 07:44:14;;;;;;;13.97;10.40;;;22.70;99.90;;;;;;6065703;23;20479;-62
2022/08/24 07:46:43;;;;;;;11.50;9.60;;;22.90;99.90;;;;;;6064190;23;20169;-62
2022/08/24 07:49:12;;;;;;;12.33;9.87;;;23.10;99.90;;;;;;6063951;23;20166;-62
2022/08/24 07:52:02;;;;;;;16.70;11.93;;;23.30;99.90;;;;;;6064432;23;20645;-62
2022/08/24 07:54:30;;;;;;;18.47;11.20;;;23.50;99.90;;;;;;6064834;23;20174;-65
2022/08/24 07:57:01;;;;;;;15.40;11.30;;;23.60;99.90;;;;;;6065757;23;20251;-63
2022/08/24 07:59:29;;;;;;;13.73;8.30;;;23.70;99.90;;;;;;6066557;23;20218;-64
2022/08/24 08:01:58;;;;;;;15.53;11.47;;;23.80;99.90;;;;;;6067977;23;20274;-63
2022/08/24 08:04:27;;;;;;;15.63;10.97;;;23.80;99.90;;;;;;6064806;23;20198;-63
2022/08/24 08:06:55;;;;;;;16.03;9.03;;;23.80;99.90;;;;;;6066332;23;20562;-63
2022/08/24 08:09:30;;;;;;;18.30;9.63;;;23.70;99.90;;;;;;6065410;23;20651;-63
2022/08/24 08:11:59;;;;;;;17.47;11.17;;;23.70;99.90;;;;;;6040883;23;20207;-63
2022/08/24 08:14:28;;;;;;;18.47;11.07;;;23.70;99.90;;;;;;6066210;23;20280;-63
2022/08/24 08:16:56;;;;;;;13.30;8.50;;;23.70;99.90;;;;;;6041189;23;20198;-63
2022/08/24 08:19:25;;;;;;;16.10;10.53;;;23.80;99.90;;;;;;6067804;23;20196;-64
2022/08/24 08:24:43;;;;;;;16.40;12.60;;;23.80;99.90;;;;;;6039287;23;20639;-63
2022/08/24 08:27:13;;;;;;;15.13;11.70;;;23.80;99.90;;;;;;6066370;23;20190;-63
2022/08/24 08:29:42;;;;;;;11.60;9.60;;;23.80;99.90;;;;;;6066335;23;20199;-63
2022/08/24 08:32:13;;;;;;;10.93;7.70;;;23.90;99.90;;;;;;6063821;23;20200;-64
2022/08/24 08:34:41;;;;;;;12.03;9.47;;;23.90;99.90;;;;;;6065847;23;20474;-63
2022/08/24 08:37:10;;;;;;;15.27;8.83;;;24.00;99.90;;;;;;6066744;23;20533;-63
2022/08/24 08:39:40;;;;;;;10.80;8.53;;;24.10;99.90;;;;;;6064719;23;20217;-63
2022/08/24 08:42:32;;;;;;;9.50;6.83;;;24.20;99.90;;;;;;6064143;23;20271;-63
2022/08/24 08:45:11;;;;;;;11.87;9.00;;;24.60;99.90;;;;;;6041129;23;20474;-63
2022/08/24 08:48:10;;;;;;;10.80;8.87;;;25.20;99.90;;;;;;6062188;23;20215;-64
2022/08/24 08:50:58;;;;;;;13.90;7.83;;;25.60;99.90;;;;;;6065449;23;20212;-64
2022/08/24 08:53:54;;;;;;;9.13;7.40;;;26.00;99.90;;;;;;6062949;23;20247;-63
2022/08/24 08:56:33;;;;;;;9.23;6.67;;;26.30;99.90;;;;;;6038489;23;20175;-64
2022/08/24 08:59:14;;;;;;;6.43;5.85;;;26.90;99.90;;;;;;6062972;23;20748;-64
2022/08/24 09:01:51;;;;;;;7.78;5.65;;;27.00;99.90;;;;;;6039153;23;20284;-64
2022/08/24 09:05:09;;;;;;;4.90;4.40;;;27.20;99.90;;;;;;6061455;23;20179;-64
2022/08/24 09:07:46;;;;;;;3.70;3.50;;;27.30;99.90;;;;;;5925688;24;20213;-63
2022/08/24 09:10:35;;;;;;;3.70;3.28;;;27.50;99.90;;;;;;5948017;24;20532;-64
2022/08/24 09:13:42;;;;;;;6.25;3.72;;;27.80;99.90;;;;;;6038157;23;20182;-64
2022/08/24 09:16:27;;;;;;;3.95;3.60;;;28.10;99.90;;;;;;6054487;23;20212;-64
2022/08/24 09:19:13;;;;;;;5.10;4.57;;;28.40;99.90;;;;;;6062572;23;20175;-64
2022/08/24 09:21:51;;;;;;;4.22;3.85;;;28.60;99.90;;;;;;6065583;23;20278;-64
2022/08/24 09:24:40;;;;;;;5.95;3.63;;;28.70;99.90;;;;;;6064650;23;20171;-63
2022/08/24 09:27:19;;;;;;;3.35;2.92;;;28.60;99.90;;;;;;6063234;23;20160;-63
2022/08/24 09:30:02;;;;;;;4.93;3.47;;;28.60;99.90;;;;;;6062793;23;20667;-64
2022/08/24 09:32:57;;;;;;;3.20;2.90;;;28.70;99.90;;;;;;6062363;23;20542;-64
2022/08/24 09:35:33;;;;;;;4.75;3.72;;;28.90;99.90;;;;;;6065625;23;20222;-64
2022/08/24 09:38:14;;;;;;;3.25;2.90;;;29.20;99.90;;;;;;6039472;23;20167;-64
2022/08/24 09:41:12;;;;;;;4.07;2.80;;;29.30;99.90;;;;;;6062969;23;20186;-64
2022/08/24 09:44:07;;;;;;;5.13;2.90;;;29.50;99.90;;;;;;6064154;23;20178;-64
2022/08/24 09:47:10;;;;;;;3.50;3.30;;;29.70;99.90;;;;;;6065022;23;20196;-64
2022/08/24 09:50:15;;;;;;;2.88;2.67;;;29.90;99.90;;;;;;5967948;23;20199;-64
2022/08/24 09:53:16;;;;;;;3.55;2.55;;;30.00;99.90;;;;;;6065365;23;20169;-64
2022/08/24 09:56:13;;;;;;;2.42;2.15;;;30.20;99.90;;;;;;6064723;23;20209;-64
2022/08/24 09:58:56;;;;;;;2.90;2.70;;;30.50;99.90;;;;;;6063814;23;20202;-64
2022/08/24 10:01:35;;;;;;;4.50;3.38;;;30.60;99.90;;;;;;6037072;23;20203;-61
2022/08/24 10:04:23;;;;;;;4.45;2.72;;;30.50;99.90;;;;;;6037850;23;20197;-62
2022/08/24 10:07:07;;;;;;;4.25;3.33;;;30.80;99.90;;;;;;6039279;23;20171;-62
2022/08/24 10:10:08;;;;;;;3.50;1.80;;;30.90;99.90;;;;;;6064370;23;20645;-62
2022/08/24 10:12:51;;;;;;;4.93;2.83;;;31.00;99.90;;;;;;6064852;23;20314;-62
2022/08/24 10:15:28;;;;;;;3.15;2.90;;;31.50;99.90;;;;;;6064697;23;20659;-62
2022/08/24 10:18:15;;;;;;;4.38;2.55;;;32.00;99.90;;;;;;6062441;23;20161;-63
2022/08/24 10:21:03;;;;;;;2.33;1.92;;;32.30;99.90;;;;;;6039127;23;20160;-62
2022/08/24 10:23:49;;;;;;;5.25;2.35;;;32.30;99.90;;;;;;6061942;23;20200;-62
2022/08/24 10:26:24;;;;;;;2.83;2.72;;;32.80;99.90;;;;;;6064116;23;20846;-62
2022/08/24 10:29:12;;;;;;;3.05;2.42;;;33.00;99.90;;;;;;6063787;23;20183;-62
2022/08/24 10:31:49;;;;;;;2.92;2.60;;;33.30;99.90;;;;;;6063838;23;20204;-62
2022/08/24 10:34:33;;;;;;;2.67;2.47;;;33.60;99.90;;;;;;6061302;23;20202;-62
2022/08/24 10:37:23;;;;;;;2.30;2.10;;;33.90;99.90;;;;;;6064460;23;20168;-62
2022/08/24 10:40:10;;;;;;;1.73;1.63;;;34.10;99.90;;;;;;6063226;23;20195;-62
2022/08/24 10:46:30;;;;;;;1.80;1.42;;;34.70;99.90;;;;;;6061747;23;20251;-62
2022/08/24 10:49:19;;;;;;;4.13;1.65;;;34.80;99.90;;;;;;6054421;23;20262;-62
2022/08/24 10:52:08;;;;;;;2.10;1.90;;;35.10;99.90;;;;;;6038283;23;20665;-62
2022/08/24 10:54:37;;;;;;;1.98;1.90;;;35.40;99.90;;;;;;6060708;23;20195;-62
2022/08/24 10:57:19;;;;;;;6.53;1.83;;;35.30;99.90;;;;;;6062909;23;20223;-62
2022/08/24 10:59:55;;;;;;;2.10;1.80;;;35.10;99.90;;;;;;6061850;23;20255;-62
2022/08/24 11:02:33;;;;;;;1.83;1.73;;;34.80;99.90;;;;;;6036884;23;20215;-65
2022/08/24 11:05:06;;;;;;;4.47;2.33;;;34.80;99.90;;;;;;6063078;23;20212;-64
2022/08/24 11:07:37;;;;;;;3.58;1.98;;;34.60;99.90;;;;;;6063003;23;20172;-64
2022/08/24 11:10:08;;;;;;;2.83;1.48;;;34.40;99.90;;;;;;6037378;23;20164;-64
2022/08/24 11:12:40;;;;;;;3.33;1.48;;;34.50;99.90;;;;;;6062980;23;20165;-63
2022/08/24 11:15:20;;;;;;;1.63;1.30;;;34.50;99.90;;;;;;6064674;23;20625;-63
2022/08/24 11:17:55;;;;;;;1.85;1.17;;;34.70;99.90;;;;;;6063678;23;20246;-62
2022/08/24 11:20:28;;;;;;;6.10;1.50;;;35.00;99.90;;;;;;6063221;23;20156;-62
2022/08/24 11:23:01;;;;;;;2.17;1.80;;;35.50;99.90;;;;;;6062419;23;20283;-62
2022/08/24 11:25:32;;;;;;;3.55;1.65;;;35.60;99.90;;;;;;6061254;23;20391;-62
2022/08/24 11:28:08;;;;;;;1.95;1.45;;;35.20;99.90;;;;;;6061588;23;20220;-62
2022/08/24 11:30:40;;;;;;;4.60;1.48;;;35.00;99.90;;;;;;6036979;23;20470;-62
2022/08/24 11:33:27;;;;;;;1.42;1.30;;;35.00;99.90;;;;;;6063699;23;20172;-62
2022/08/24 11:35:56;;;;;;;1.00;1.00;;;35.00;99.90;;;;;;6040339;23;20172;-63
2022/08/24 11:38:29;;;;;;;4.05;1.35;;;35.30;99.90;;;;;;6065146;23;20630;-62
2022/08/24 11:41:16;;;;;;;3.10;1.25;;;35.10;99.90;;;;;;6065984;23;20163;-63
2022/08/24 11:43:57;;;;;;;2.50;1.30;;;34.40;99.90;;;;;;6064451;23;20259;-62
2022/08/24 11:46:32;;;;;;;1.15;1.15;;;33.80;99.90;;;;;;6065449;23;20626;-62
2022/08/24 11:49:09;;;;;;;1.40;1.20;;;33.40;99.90;;;;;;6066981;23;20178;-62
2022/08/24 11:51:49;;;;;;;5.63;1.48;;;33.00;99.90;;;;;;6040943;23;20175;-62
2022/08/24 11:54:25;;;;;;;1.52;1.42;;;32.60;99.90;;;;;;6066768;23;20155;-61
2022/08/24 11:57:08;;;;;;;4.10;1.63;;;32.30;99.90;;;;;;6067029;23;20160;-64
2022/08/24 11:59:46;;;;;;;1.73;1.63;;;32.40;99.90;;;;;;6017232;23;20459;-64
2022/08/24 12:02:22;;;;;;;1.27;1.27;;;32.20;99.90;;;;;;6042168;23;20200;-64
2022/08/24 12:04:58;;;;;;;4.00;1.80;;;32.20;99.90;;;;;;6065804;23;20735;-64
2022/08/24 12:07:45;;;;;;;4.50;1.60;;;32.00;99.90;;;;;;6039906;23;20191;-64
2022/08/24 12:10:30;;;;;;;1.70;1.60;;;31.60;99.90;;;;;;6065196;23;20180;-64
2022/08/24 12:13:06;;;;;;;2.80;1.77;;;31.90;99.90;;;;;;6066742;23;20177;-64
2022/08/24 12:15:45;;;;;;;1.38;1.27;;;32.30;99.90;;;;;;6067037;23;20178;-64
2022/08/24 12:18:29;;;;;;;2.63;1.65;;;32.50;99.90;;;;;;6066502;23;20175;-62
2022/08/24 12:20:59;;;;;;;1.60;1.50;;;32.30;99.90;;;;;;6066027;23;20175;-62
2022/08/24 12:23:36;;;;;;;1.73;1.63;;;32.20;99.90;;;;;;6042185;23;20524;-62
2022/08/24 12:26:12;;;;;;;1.92;1.52;;;32.20;99.90;;;;;;6065790;23;20575;-61
2022/08/24 12:28:44;;;;;;;3.17;1.60;;;32.50;99.90;;;;;;6068363;23;20545;-61
2022/08/24 12:31:19;;;;;;;1.95;1.48;;;32.50;99.90;;;;;;6067769;23;20247;-61
2022/08/24 12:33:51;;;;;;;1.33;1.33;;;32.50;99.90;;;;;;6068415;23;20211;-61
2022/08/24 12:36:27;;;;;;;3.45;1.20;;;32.50;99.90;;;;;;6066970;23;20172;-62
2022/08/24 12:39:08;;;;;;;1.50;1.40;;;32.30;99.90;;;;;;6067478;23;20171;-61
2022/08/24 12:41:50;;;;;;;1.40;1.35;;;32.00;99.90;;;;;;6065919;23;20978;-61
2022/08/24 12:44:20;;;;;;;2.25;1.67;;;31.80;99.90;;;;;;6067691;23;20194;-61
2022/08/24 12:46:54;;;;;;;1.48;1.48;;;31.70;99.90;;;;;;6065173;23;20193;-61
2022/08/24 12:49:28;;;;;;;3.08;1.60;;;31.60;99.90;;;;;;6064962;23;20190;-61
2022/08/24 12:52:38;;;;;;;1.63;1.52;;;31.60;99.90;;;;;;6064086;23;20593;-61
2022/08/24 12:55:26;;;;;;;2.45;1.25;;;31.80;99.90;;;;;;6038601;23;20726;-61
2022/08/24 12:58:05;;;;;;;2.67;1.20;;;32.00;99.90;;;;;;6038588;23;20253;-63
2022/08/24 13:00:55;;;;;;;1.27;1.27;;;32.20;99.90;;;;;;6066194;23;20164;-64
2022/08/24 13:03:31;;;;;;;2.92;1.23;;;32.30;99.90;;;;;;6066762;23;20650;-64
2022/08/24 13:06:06;;;;;;;3.72;1.40;;;32.60;99.90;;;;;;6067483;23;20168;-64
2022/08/24 13:08:39;;;;;;;2.83;1.35;;;32.60;99.90;;;;;;6066595;23;20199;-64
2022/08/24 13:11:12;;;;;;;1.10;1.10;;;32.60;99.90;;;;;;6066098;23;20339;-64
2022/08/24 13:13:47;;;;;;;1.40;1.30;;;32.60;99.90;;;;;;6067133;23;20192;-64
2022/08/24 13:16:47;;;;;;;1.45;1.45;;;32.60;99.90;;;;;;6066888;23;20203;-64
2022/08/24 13:19:34;;;;;;;2.85;1.25;;;32.60;99.90;;;;;;6066912;23;20171;-64
2022/08/24 13:22:36;;;;;;;1.20;1.20;;;32.80;99.90;;;;;;6066757;23;20533;-64
2022/08/24 13:25:23;;;;;;;2.58;1.60;;;32.80;99.90;;;;;;6066472;23;20795;-63
2022/08/24 13:28:05;;;;;;;1.55;1.30;;;32.40;99.90;;;;;;6041038;23;20473;-64
2022/08/24 13:31:13;;;;;;;2.13;1.50;;;32.70;99.90;;;;;;6041437;23;20183;-64
2022/08/24 13:33:44;;;;;;;1.63;1.52;;;32.90;99.90;;;;;;6066924;23;20239;-63
2022/08/24 13:37:10;;;;;;;1.63;1.42;;;32.70;99.90;;;;;;6066776;23;20239;-64
2022/08/24 13:40:08;;;;;;;1.73;1.30;;;32.90;99.90;;;;;;6066432;23;20655;-64
2022/08/24 13:43:09;;;;;;;2.90;1.40;;;32.90;99.90;;;;;;6066536;23;20169;-64
2022/08/24 13:45:45;;;;;;;2.67;1.42;;;33.10;99.90;;;;;;6060450;23;20190;-64